sensor_id;sensor_type;location;lat;lon;timestamp;P1;durP1;ratioP1;P2;durP2;ratioP2
18174;SDS011;9212;50.894;16.714;2022-12-18T00:00:47;52.27;;;19.03;;
18174;SDS011;9212;50.894;16.714;2022-12-18T00:03:14;49.93;;;18.63;;
18174;SDS011;9212;50.894;16.714;2022-12-18T00:05:48;61.27;;;19.37;;
18174;SDS011;9212;50.894;16.714;2022-12-18T00:08:15;69.33;;;20.87;;
18174;SDS011;9212;50.894;16.714;2022-12-18T00:10:43;58.77;;;19.50;;
18174;SDS011;9212;50.894;16.714;2022-12-18T00:13:12;58.90;;;19.80;;
18174;SDS011;9212;50.894;16.714;2022-12-18T00:15:40;59.08;;;19.55;;
18174;SDS011;9212;50.894;16.714;2022-12-18T00:18:08;54.57;;;19.53;;
18174;SDS011;9212;50.894;16.714;2022-12-18T00:20:35;63.63;;;20.90;;
18174;SDS011;9212;50.894;16.714;2022-12-18T00:23:03;67.57;;;20.67;;
18174;SDS011;9212;50.894;16.714;2022-12-18T00:25:32;60.80;;;18.17;;
18174;SDS011;9212;50.894;16.714;2022-12-18T00:27:59;63.33;;;20.73;;
18174;SDS011;9212;50.894;16.714;2022-12-18T00:30:26;49.90;;;17.40;;
18174;SDS011;9212;50.894;16.714;2022-12-18T00:32:55;61.30;;;17.83;;
18174;SDS011;9212;50.894;16.714;2022-12-18T00:35:22;87.73;;;27.30;;
18174;SDS011;9212;50.894;16.714;2022-12-18T00:37:49;79.43;;;22.77;;
18174;SDS011;9212;50.894;16.714;2022-12-18T00:40:16;75.37;;;22.37;;
18174;SDS011;9212;50.894;16.714;2022-12-18T00:42:43;73.20;;;22.50;;
18174;SDS011;9212;50.894;16.714;2022-12-18T00:45:21;64.87;;;21.50;;
18174;SDS011;9212;50.894;16.714;2022-12-18T00:47:50;55.77;;;17.80;;
18174;SDS011;9212;50.894;16.714;2022-12-18T00:50:18;38.03;;;14.83;;
18174;SDS011;9212;50.894;16.714;2022-12-18T00:52:46;44.60;;;15.40;;
18174;SDS011;9212;50.894;16.714;2022-12-18T00:55:13;43.90;;;15.67;;
18174;SDS011;9212;50.894;16.714;2022-12-18T00:57:41;41.00;;;16.97;;
18174;SDS011;9212;50.894;16.714;2022-12-18T01:00:09;47.17;;;16.50;;
18174;SDS011;9212;50.894;16.714;2022-12-18T01:02:38;50.67;;;18.00;;
18174;SDS011;9212;50.894;16.714;2022-12-18T01:05:05;36.03;;;14.87;;
18174;SDS011;9212;50.894;16.714;2022-12-18T01:07:34;38.90;;;14.57;;
18174;SDS011;9212;50.894;16.714;2022-12-18T01:10:01;39.43;;;13.67;;
18174;SDS011;9212;50.894;16.714;2022-12-18T01:12:28;45.40;;;14.80;;
18174;SDS011;9212;50.894;16.714;2022-12-18T01:14:55;43.63;;;14.30;;
18174;SDS011;9212;50.894;16.714;2022-12-18T01:17:22;42.73;;;15.70;;
18174;SDS011;9212;50.894;16.714;2022-12-18T01:19:50;48.97;;;14.57;;
18174;SDS011;9212;50.894;16.714;2022-12-18T01:22:17;44.73;;;15.33;;
18174;SDS011;9212;50.894;16.714;2022-12-18T01:24:46;30.63;;;11.13;;
18174;SDS011;9212;50.894;16.714;2022-12-18T01:27:13;32.00;;;13.10;;
18174;SDS011;9212;50.894;16.714;2022-12-18T01:29:40;37.63;;;13.73;;
18174;SDS011;9212;50.894;16.714;2022-12-18T01:32:07;34.03;;;13.47;;
18174;SDS011;9212;50.894;16.714;2022-12-18T01:34:35;35.97;;;13.83;;
18174;SDS011;9212;50.894;16.714;2022-12-18T01:37:02;35.90;;;13.60;;
18174;SDS011;9212;50.894;16.714;2022-12-18T01:39:29;35.80;;;13.97;;
18174;SDS011;9212;50.894;16.714;2022-12-18T01:41:59;34.90;;;13.03;;
18174;SDS011;9212;50.894;16.714;2022-12-18T01:47:23;36.33;;;13.93;;
18174;SDS011;9212;50.894;16.714;2022-12-18T01:49:52;41.57;;;15.47;;
18174;SDS011;9212;50.894;16.714;2022-12-18T01:52:20;43.50;;;15.43;;
18174;SDS011;9212;50.894;16.714;2022-12-18T01:54:48;45.17;;;16.00;;
18174;SDS011;9212;50.894;16.714;2022-12-18T01:57:19;41.27;;;16.43;;
18174;SDS011;9212;50.894;16.714;2022-12-18T01:59:47;39.60;;;13.27;;
18174;SDS011;9212;50.894;16.714;2022-12-18T02:02:18;40.60;;;12.83;;
18174;SDS011;9212;50.894;16.714;2022-12-18T02:04:46;38.93;;;14.60;;
18174;SDS011;9212;50.894;16.714;2022-12-18T02:07:14;39.27;;;13.20;;
18174;SDS011;9212;50.894;16.714;2022-12-18T02:09:50;37.77;;;13.70;;
18174;SDS011;9212;50.894;16.714;2022-12-18T02:12:27;42.60;;;13.40;;
18174;SDS011;9212;50.894;16.714;2022-12-18T02:14:58;43.20;;;14.03;;
18174;SDS011;9212;50.894;16.714;2022-12-18T02:17:34;36.77;;;13.63;;
18174;SDS011;9212;50.894;16.714;2022-12-18T02:20:07;51.87;;;15.90;;
18174;SDS011;9212;50.894;16.714;2022-12-18T02:22:44;44.60;;;14.70;;
18174;SDS011;9212;50.894;16.714;2022-12-18T02:25:28;37.63;;;14.00;;
18174;SDS011;9212;50.894;16.714;2022-12-18T02:28:09;37.37;;;13.17;;
18174;SDS011;9212;50.894;16.714;2022-12-18T02:30:38;40.97;;;14.47;;
18174;SDS011;9212;50.894;16.714;2022-12-18T02:33:07;38.53;;;13.90;;
18174;SDS011;9212;50.894;16.714;2022-12-18T02:35:36;41.30;;;15.00;;
18174;SDS011;9212;50.894;16.714;2022-12-18T02:38:04;36.20;;;12.93;;
18174;SDS011;9212;50.894;16.714;2022-12-18T02:40:32;39.60;;;12.37;;
18174;SDS011;9212;50.894;16.714;2022-12-18T02:43:06;35.77;;;12.50;;
18174;SDS011;9212;50.894;16.714;2022-12-18T02:45:37;32.87;;;13.30;;
18174;SDS011;9212;50.894;16.714;2022-12-18T02:48:14;42.37;;;13.87;;
18174;SDS011;9212;50.894;16.714;2022-12-18T02:50:51;35.53;;;12.97;;
18174;SDS011;9212;50.894;16.714;2022-12-18T02:53:30;40.73;;;14.80;;
18174;SDS011;9212;50.894;16.714;2022-12-18T02:56:03;34.77;;;13.43;;
18174;SDS011;9212;50.894;16.714;2022-12-18T02:58:38;32.47;;;12.30;;
18174;SDS011;9212;50.894;16.714;2022-12-18T03:01:15;40.70;;;13.03;;
18174;SDS011;9212;50.894;16.714;2022-12-18T03:03:49;42.00;;;14.93;;
18174;SDS011;9212;50.894;16.714;2022-12-18T03:06:24;49.33;;;13.83;;
18174;SDS011;9212;50.894;16.714;2022-12-18T03:08:56;41.33;;;12.67;;
18174;SDS011;9212;50.894;16.714;2022-12-18T03:11:25;29.33;;;13.20;;
18174;SDS011;9212;50.894;16.714;2022-12-18T03:14:09;39.37;;;13.10;;
18174;SDS011;9212;50.894;16.714;2022-12-18T03:16:39;33.87;;;11.97;;
18174;SDS011;9212;50.894;16.714;2022-12-18T03:19:10;36.70;;;14.20;;
18174;SDS011;9212;50.894;16.714;2022-12-18T03:21:42;40.67;;;14.00;;
18174;SDS011;9212;50.894;16.714;2022-12-18T03:24:11;32.63;;;13.13;;
18174;SDS011;9212;50.894;16.714;2022-12-18T03:26:40;37.60;;;12.83;;
18174;SDS011;9212;50.894;16.714;2022-12-18T03:29:12;34.00;;;14.67;;
18174;SDS011;9212;50.894;16.714;2022-12-18T03:31:45;39.53;;;14.30;;
18174;SDS011;9212;50.894;16.714;2022-12-18T03:34:17;32.07;;;12.73;;
18174;SDS011;9212;50.894;16.714;2022-12-18T03:36:49;35.47;;;13.13;;
18174;SDS011;9212;50.894;16.714;2022-12-18T03:39:17;36.90;;;13.03;;
18174;SDS011;9212;50.894;16.714;2022-12-18T03:41:45;36.20;;;13.57;;
18174;SDS011;9212;50.894;16.714;2022-12-18T03:44:19;39.20;;;12.43;;
18174;SDS011;9212;50.894;16.714;2022-12-18T03:46:53;30.47;;;12.63;;
18174;SDS011;9212;50.894;16.714;2022-12-18T03:49:25;34.63;;;14.53;;
18174;SDS011;9212;50.894;16.714;2022-12-18T03:52:01;31.83;;;13.63;;
18174;SDS011;9212;50.894;16.714;2022-12-18T03:54:30;34.13;;;13.43;;
18174;SDS011;9212;50.894;16.714;2022-12-18T03:56:59;32.80;;;13.27;;
18174;SDS011;9212;50.894;16.714;2022-12-18T03:59:33;37.73;;;13.63;;
18174;SDS011;9212;50.894;16.714;2022-12-18T04:02:03;32.10;;;13.13;;
18174;SDS011;9212;50.894;16.714;2022-12-18T04:04:33;43.20;;;13.60;;
18174;SDS011;9212;50.894;16.714;2022-12-18T04:07:01;30.53;;;12.30;;
18174;SDS011;9212;50.894;16.714;2022-12-18T04:09:29;28.80;;;11.77;;
18174;SDS011;9212;50.894;16.714;2022-12-18T04:11:58;33.00;;;12.73;;
18174;SDS011;9212;50.894;16.714;2022-12-18T04:14:25;34.43;;;12.87;;
18174;SDS011;9212;50.894;16.714;2022-12-18T04:16:53;34.87;;;12.90;;
18174;SDS011;9212;50.894;16.714;2022-12-18T04:19:20;27.87;;;10.13;;
18174;SDS011;9212;50.894;16.714;2022-12-18T04:21:47;36.67;;;13.13;;
18174;SDS011;9212;50.894;16.714;2022-12-18T04:24:14;35.30;;;12.93;;
18174;SDS011;9212;50.894;16.714;2022-12-18T04:26:42;27.70;;;11.67;;
18174;SDS011;9212;50.894;16.714;2022-12-18T04:29:09;30.77;;;12.00;;
18174;SDS011;9212;50.894;16.714;2022-12-18T04:31:36;33.93;;;13.07;;
18174;SDS011;9212;50.894;16.714;2022-12-18T04:34:04;28.73;;;11.17;;
18174;SDS011;9212;50.894;16.714;2022-12-18T04:36:31;29.17;;;11.67;;
18174;SDS011;9212;50.894;16.714;2022-12-18T04:38:59;32.13;;;11.77;;
18174;SDS011;9212;50.894;16.714;2022-12-18T04:41:26;31.43;;;12.97;;
18174;SDS011;9212;50.894;16.714;2022-12-18T04:43:53;38.10;;;15.07;;
18174;SDS011;9212;50.894;16.714;2022-12-18T04:46:20;32.50;;;11.90;;
18174;SDS011;9212;50.894;16.714;2022-12-18T04:48:47;37.00;;;13.03;;
18174;SDS011;9212;50.894;16.714;2022-12-18T04:51:15;33.93;;;14.37;;
18174;SDS011;9212;50.894;16.714;2022-12-18T04:53:42;35.37;;;12.97;;
18174;SDS011;9212;50.894;16.714;2022-12-18T04:56:11;40.47;;;14.23;;
18174;SDS011;9212;50.894;16.714;2022-12-18T04:58:39;34.33;;;13.70;;
18174;SDS011;9212;50.894;16.714;2022-12-18T05:01:08;38.43;;;12.83;;
18174;SDS011;9212;50.894;16.714;2022-12-18T05:03:36;29.13;;;11.07;;
18174;SDS011;9212;50.894;16.714;2022-12-18T05:06:03;32.00;;;13.27;;
18174;SDS011;9212;50.894;16.714;2022-12-18T05:08:33;30.00;;;11.07;;
18174;SDS011;9212;50.894;16.714;2022-12-18T05:11:00;31.33;;;12.20;;
18174;SDS011;9212;50.894;16.714;2022-12-18T05:13:28;29.13;;;11.33;;
18174;SDS011;9212;50.894;16.714;2022-12-18T05:15:55;32.33;;;12.90;;
18174;SDS011;9212;50.894;16.714;2022-12-18T05:18:22;28.03;;;12.07;;
18174;SDS011;9212;50.894;16.714;2022-12-18T05:20:50;37.13;;;13.90;;
18174;SDS011;9212;50.894;16.714;2022-12-18T05:23:18;33.23;;;12.03;;
18174;SDS011;9212;50.894;16.714;2022-12-18T05:25:50;30.40;;;11.80;;
18174;SDS011;9212;50.894;16.714;2022-12-18T05:28:17;30.87;;;11.83;;
18174;SDS011;9212;50.894;16.714;2022-12-18T05:30:47;26.13;;;11.40;;
18174;SDS011;9212;50.894;16.714;2022-12-18T05:33:15;36.67;;;12.00;;
18174;SDS011;9212;50.894;16.714;2022-12-18T05:35:42;27.37;;;11.40;;
18174;SDS011;9212;50.894;16.714;2022-12-18T05:38:10;36.00;;;14.10;;
18174;SDS011;9212;50.894;16.714;2022-12-18T05:40:37;28.27;;;11.00;;
18174;SDS011;9212;50.894;16.714;2022-12-18T05:43:09;27.70;;;11.80;;
18174;SDS011;9212;50.894;16.714;2022-12-18T05:45:37;23.73;;;9.93;;
18174;SDS011;9212;50.894;16.714;2022-12-18T05:48:04;24.83;;;11.60;;
18174;SDS011;9212;50.894;16.714;2022-12-18T05:50:33;37.33;;;12.30;;
18174;SDS011;9212;50.894;16.714;2022-12-18T05:53:01;30.93;;;10.60;;
18174;SDS011;9212;50.894;16.714;2022-12-18T05:55:28;35.37;;;11.27;;
18174;SDS011;9212;50.894;16.714;2022-12-18T05:57:55;28.90;;;10.33;;
18174;SDS011;9212;50.894;16.714;2022-12-18T06:00:23;20.50;;;8.80;;
18174;SDS011;9212;50.894;16.714;2022-12-18T06:02:50;24.87;;;10.67;;
18174;SDS011;9212;50.894;16.714;2022-12-18T06:05:17;22.07;;;9.50;;
18174;SDS011;9212;50.894;16.714;2022-12-18T06:07:45;27.87;;;10.27;;
18174;SDS011;9212;50.894;16.714;2022-12-18T06:10:12;19.77;;;9.63;;
18174;SDS011;9212;50.894;16.714;2022-12-18T06:12:39;30.97;;;11.60;;
18174;SDS011;9212;50.894;16.714;2022-12-18T06:15:06;28.97;;;11.00;;
18174;SDS011;9212;50.894;16.714;2022-12-18T06:17:35;27.43;;;10.77;;
18174;SDS011;9212;50.894;16.714;2022-12-18T06:20:03;24.33;;;9.93;;
18174;SDS011;9212;50.894;16.714;2022-12-18T06:22:32;26.70;;;11.60;;
18174;SDS011;9212;50.894;16.714;2022-12-18T06:25:00;29.97;;;10.43;;
18174;SDS011;9212;50.894;16.714;2022-12-18T06:27:27;26.90;;;10.73;;
18174;SDS011;9212;50.894;16.714;2022-12-18T06:29:54;23.80;;;9.53;;
18174;SDS011;9212;50.894;16.714;2022-12-18T06:32:21;21.50;;;10.00;;
18174;SDS011;9212;50.894;16.714;2022-12-18T06:34:49;28.23;;;11.23;;
18174;SDS011;9212;50.894;16.714;2022-12-18T06:37:17;26.60;;;9.37;;
18174;SDS011;9212;50.894;16.714;2022-12-18T06:39:44;24.07;;;10.37;;
18174;SDS011;9212;50.894;16.714;2022-12-18T06:42:11;19.50;;;8.00;;
18174;SDS011;9212;50.894;16.714;2022-12-18T06:44:38;17.57;;;9.57;;
18174;SDS011;9212;50.894;16.714;2022-12-18T06:47:05;19.37;;;8.67;;
18174;SDS011;9212;50.894;16.714;2022-12-18T06:49:32;22.13;;;9.73;;
18174;SDS011;9212;50.894;16.714;2022-12-18T06:52:01;26.80;;;9.67;;
18174;SDS011;9212;50.894;16.714;2022-12-18T06:54:28;21.80;;;10.97;;
18174;SDS011;9212;50.894;16.714;2022-12-18T06:56:55;23.57;;;9.97;;
18174;SDS011;9212;50.894;16.714;2022-12-18T06:59:22;18.53;;;9.17;;
18174;SDS011;9212;50.894;16.714;2022-12-18T07:01:49;18.47;;;7.93;;
18174;SDS011;9212;50.894;16.714;2022-12-18T07:04:16;25.73;;;10.73;;
18174;SDS011;9212;50.894;16.714;2022-12-18T07:06:43;21.93;;;9.93;;
18174;SDS011;9212;50.894;16.714;2022-12-18T07:09:12;25.87;;;9.20;;
18174;SDS011;9212;50.894;16.714;2022-12-18T07:11:39;20.03;;;8.97;;
18174;SDS011;9212;50.894;16.714;2022-12-18T07:14:05;28.43;;;9.87;;
18174;SDS011;9212;50.894;16.714;2022-12-18T07:16:33;19.13;;;9.23;;
18174;SDS011;9212;50.894;16.714;2022-12-18T07:19:00;23.33;;;10.20;;
18174;SDS011;9212;50.894;16.714;2022-12-18T07:21:27;26.90;;;10.47;;
18174;SDS011;9212;50.894;16.714;2022-12-18T07:23:54;38.43;;;14.87;;
18174;SDS011;9212;50.894;16.714;2022-12-18T07:26:22;26.67;;;10.90;;
18174;SDS011;9212;50.894;16.714;2022-12-18T07:28:49;31.73;;;12.33;;
18174;SDS011;9212;50.894;16.714;2022-12-18T07:31:17;29.60;;;11.43;;
18174;SDS011;9212;50.894;16.714;2022-12-18T07:33:46;24.63;;;10.80;;
18174;SDS011;9212;50.894;16.714;2022-12-18T07:36:14;36.77;;;13.00;;
18174;SDS011;9212;50.894;16.714;2022-12-18T07:38:41;26.30;;;10.70;;
18174;SDS011;9212;50.894;16.714;2022-12-18T07:41:09;31.90;;;14.10;;
18174;SDS011;9212;50.894;16.714;2022-12-18T07:43:38;31.73;;;13.87;;
18174;SDS011;9212;50.894;16.714;2022-12-18T07:46:06;17.43;;;9.10;;
18174;SDS011;9212;50.894;16.714;2022-12-18T07:48:34;36.30;;;14.10;;
18174;SDS011;9212;50.894;16.714;2022-12-18T07:51:02;30.00;;;11.63;;
18174;SDS011;9212;50.894;16.714;2022-12-18T07:53:31;27.60;;;11.47;;
18174;SDS011;9212;50.894;16.714;2022-12-18T07:55:59;29.33;;;11.50;;
18174;SDS011;9212;50.894;16.714;2022-12-18T07:58:28;30.30;;;11.63;;
18174;SDS011;9212;50.894;16.714;2022-12-18T08:01:03;33.03;;;12.93;;
18174;SDS011;9212;50.894;16.714;2022-12-18T08:03:31;30.67;;;11.73;;
18174;SDS011;9212;50.894;16.714;2022-12-18T08:05:59;35.10;;;12.57;;
18174;SDS011;9212;50.894;16.714;2022-12-18T08:08:26;32.43;;;11.73;;
18174;SDS011;9212;50.894;16.714;2022-12-18T08:10:53;28.50;;;12.30;;
18174;SDS011;9212;50.894;16.714;2022-12-18T08:13:21;31.20;;;15.03;;
18174;SDS011;9212;50.894;16.714;2022-12-18T08:15:54;33.70;;;13.43;;
18174;SDS011;9212;50.894;16.714;2022-12-18T08:18:24;29.07;;;11.53;;
18174;SDS011;9212;50.894;16.714;2022-12-18T08:20:51;29.73;;;12.20;;
18174;SDS011;9212;50.894;16.714;2022-12-18T08:23:18;30.87;;;11.63;;
18174;SDS011;9212;50.894;16.714;2022-12-18T08:25:45;29.23;;;11.37;;
18174;SDS011;9212;50.894;16.714;2022-12-18T08:28:13;28.50;;;11.03;;
18174;SDS011;9212;50.894;16.714;2022-12-18T08:30:40;26.33;;;11.13;;
18174;SDS011;9212;50.894;16.714;2022-12-18T08:33:07;24.80;;;10.43;;
18174;SDS011;9212;50.894;16.714;2022-12-18T08:35:36;26.97;;;11.47;;
18174;SDS011;9212;50.894;16.714;2022-12-18T08:38:03;26.00;;;10.93;;
18174;SDS011;9212;50.894;16.714;2022-12-18T08:40:30;25.23;;;10.67;;
18174;SDS011;9212;50.894;16.714;2022-12-18T08:42:57;23.77;;;11.93;;
18174;SDS011;9212;50.894;16.714;2022-12-18T08:45:42;63.40;;;20.53;;
18174;SDS011;9212;50.894;16.714;2022-12-18T08:48:09;48.83;;;17.43;;
18174;SDS011;9212;50.894;16.714;2022-12-18T08:50:38;42.27;;;15.23;;
18174;SDS011;9212;50.894;16.714;2022-12-18T08:53:05;27.60;;;9.97;;
18174;SDS011;9212;50.894;16.714;2022-12-18T08:55:32;26.77;;;11.10;;
18174;SDS011;9212;50.894;16.714;2022-12-18T08:58:00;24.33;;;10.30;;
18174;SDS011;9212;50.894;16.714;2022-12-18T09:00:27;31.10;;;10.27;;
18174;SDS011;9212;50.894;16.714;2022-12-18T09:02:54;28.03;;;10.60;;
18174;SDS011;9212;50.894;16.714;2022-12-18T09:05:21;24.10;;;9.83;;
18174;SDS011;9212;50.894;16.714;2022-12-18T09:07:49;19.23;;;9.20;;
18174;SDS011;9212;50.894;16.714;2022-12-18T09:10:17;26.40;;;10.33;;
18174;SDS011;9212;50.894;16.714;2022-12-18T09:12:44;30.67;;;9.13;;
18174;SDS011;9212;50.894;16.714;2022-12-18T09:15:11;17.67;;;8.27;;
18174;SDS011;9212;50.894;16.714;2022-12-18T09:17:38;21.67;;;8.90;;
18174;SDS011;9212;50.894;16.714;2022-12-18T09:20:05;23.23;;;9.47;;
18174;SDS011;9212;50.894;16.714;2022-12-18T09:22:33;18.23;;;8.27;;
18174;SDS011;9212;50.894;16.714;2022-12-18T09:25:02;32.83;;;10.73;;
18174;SDS011;9212;50.894;16.714;2022-12-18T09:27:32;31.83;;;10.40;;
18174;SDS011;9212;50.894;16.714;2022-12-18T09:29:59;32.60;;;10.83;;
18174;SDS011;9212;50.894;16.714;2022-12-18T09:32:26;36.60;;;14.00;;
18174;SDS011;9212;50.894;16.714;2022-12-18T09:34:53;27.83;;;11.53;;
18174;SDS011;9212;50.894;16.714;2022-12-18T09:37:20;34.13;;;14.53;;
18174;SDS011;9212;50.894;16.714;2022-12-18T09:39:47;49.63;;;17.67;;
18174;SDS011;9212;50.894;16.714;2022-12-18T09:42:17;50.63;;;17.63;;
18174;SDS011;9212;50.894;16.714;2022-12-18T09:44:49;47.83;;;18.70;;
18174;SDS011;9212;50.894;16.714;2022-12-18T09:47:18;43.87;;;15.53;;
18174;SDS011;9212;50.894;16.714;2022-12-18T09:49:50;44.17;;;15.93;;
18174;SDS011;9212;50.894;16.714;2022-12-18T09:52:21;36.40;;;15.70;;
18174;SDS011;9212;50.894;16.714;2022-12-18T09:54:53;38.73;;;14.57;;
18174;SDS011;9212;50.894;16.714;2022-12-18T09:57:26;46.50;;;16.40;;
18174;SDS011;9212;50.894;16.714;2022-12-18T09:59:56;41.67;;;16.97;;
18174;SDS011;9212;50.894;16.714;2022-12-18T10:02:29;37.87;;;15.27;;
18174;SDS011;9212;50.894;16.714;2022-12-18T10:05:04;33.80;;;14.27;;
18174;SDS011;9212;50.894;16.714;2022-12-18T10:07:47;31.43;;;15.03;;
18174;SDS011;9212;50.894;16.714;2022-12-18T10:10:23;38.50;;;14.70;;
18174;SDS011;9212;50.894;16.714;2022-12-18T10:13:00;45.13;;;16.47;;
18174;SDS011;9212;50.894;16.714;2022-12-18T10:15:36;51.50;;;17.10;;
18174;SDS011;9212;50.894;16.714;2022-12-18T10:18:15;52.33;;;18.87;;
18174;SDS011;9212;50.894;16.714;2022-12-18T10:20:52;64.30;;;22.47;;
18174;SDS011;9212;50.894;16.714;2022-12-18T10:23:25;52.97;;;20.23;;
18174;SDS011;9212;50.894;16.714;2022-12-18T10:26:00;73.60;;;22.83;;
18174;SDS011;9212;50.894;16.714;2022-12-18T10:28:32;60.07;;;20.53;;
18174;SDS011;9212;50.894;16.714;2022-12-18T10:31:01;44.87;;;18.87;;
18174;SDS011;9212;50.894;16.714;2022-12-18T10:33:29;47.43;;;19.07;;
18174;SDS011;9212;50.894;16.714;2022-12-18T10:35:58;49.53;;;18.60;;
18174;SDS011;9212;50.894;16.714;2022-12-18T10:38:27;43.17;;;17.37;;
18174;SDS011;9212;50.894;16.714;2022-12-18T10:40:56;54.73;;;20.37;;
18174;SDS011;9212;50.894;16.714;2022-12-18T10:43:25;50.67;;;19.77;;
18174;SDS011;9212;50.894;16.714;2022-12-18T10:46:00;53.57;;;20.53;;
18174;SDS011;9212;50.894;16.714;2022-12-18T10:48:39;45.90;;;17.33;;
18174;SDS011;9212;50.894;16.714;2022-12-18T10:51:19;26.90;;;11.47;;
18174;SDS011;9212;50.894;16.714;2022-12-18T10:53:51;18.87;;;8.47;;
18174;SDS011;9212;50.894;16.714;2022-12-18T10:56:21;22.17;;;9.47;;
18174;SDS011;9212;50.894;16.714;2022-12-18T10:58:55;26.00;;;10.83;;
18174;SDS011;9212;50.894;16.714;2022-12-18T11:01:25;30.57;;;12.73;;
18174;SDS011;9212;50.894;16.714;2022-12-18T11:03:59;51.37;;;20.20;;
18174;SDS011;9212;50.894;16.714;2022-12-18T11:06:27;46.53;;;19.70;;
18174;SDS011;9212;50.894;16.714;2022-12-18T11:08:59;63.90;;;22.80;;
18174;SDS011;9212;50.894;16.714;2022-12-18T11:11:27;69.90;;;22.63;;
18174;SDS011;9212;50.894;16.714;2022-12-18T11:13:58;65.40;;;25.50;;
18174;SDS011;9212;50.894;16.714;2022-12-18T11:16:29;54.10;;;20.17;;
18174;SDS011;9212;50.894;16.714;2022-12-18T11:19:09;57.10;;;23.03;;
18174;SDS011;9212;50.894;16.714;2022-12-18T11:21:41;47.83;;;20.13;;
18174;SDS011;9212;50.894;16.714;2022-12-18T11:24:15;56.27;;;20.63;;
18174;SDS011;9212;50.894;16.714;2022-12-18T11:26:47;48.70;;;20.63;;
18174;SDS011;9212;50.894;16.714;2022-12-18T11:29:16;61.17;;;21.97;;
18174;SDS011;9212;50.894;16.714;2022-12-18T11:31:45;45.37;;;17.53;;
18174;SDS011;9212;50.894;16.714;2022-12-18T11:34:14;50.07;;;16.20;;
18174;SDS011;9212;50.894;16.714;2022-12-18T11:36:46;44.30;;;17.10;;
18174;SDS011;9212;50.894;16.714;2022-12-18T11:39:16;37.80;;;14.80;;
18174;SDS011;9212;50.894;16.714;2022-12-18T11:41:47;29.20;;;12.80;;
18174;SDS011;9212;50.894;16.714;2022-12-18T11:44:38;11.90;;;5.57;;
18174;SDS011;9212;50.894;16.714;2022-12-18T11:47:15;28.67;;;10.10;;
18174;SDS011;9212;50.894;16.714;2022-12-18T11:49:48;25.00;;;10.63;;
18174;SDS011;9212;50.894;16.714;2022-12-18T11:52:17;27.83;;;10.53;;
18174;SDS011;9212;50.894;16.714;2022-12-18T11:54:47;22.37;;;7.97;;
18174;SDS011;9212;50.894;16.714;2022-12-18T11:57:19;29.37;;;12.00;;
18174;SDS011;9212;50.894;16.714;2022-12-18T12:00:01;29.73;;;12.20;;
18174;SDS011;9212;50.894;16.714;2022-12-18T12:03:01;59.60;;;20.20;;
18174;SDS011;9212;50.894;16.714;2022-12-18T12:05:51;89.00;;;25.00;;
18174;SDS011;9212;50.894;16.714;2022-12-18T12:08:30;75.03;;;20.87;;
18174;SDS011;9212;50.894;16.714;2022-12-18T12:11:06;52.63;;;17.80;;
18174;SDS011;9212;50.894;16.714;2022-12-18T12:13:43;55.50;;;20.23;;
18174;SDS011;9212;50.894;16.714;2022-12-18T12:16:33;49.93;;;19.53;;
18174;SDS011;9212;50.894;16.714;2022-12-18T12:19:15;54.80;;;20.67;;
18174;SDS011;9212;50.894;16.714;2022-12-18T12:21:53;47.20;;;18.53;;
18174;SDS011;9212;50.894;16.714;2022-12-18T12:24:31;56.53;;;21.33;;
18174;SDS011;9212;50.894;16.714;2022-12-18T12:27:08;50.27;;;19.70;;
18174;SDS011;9212;50.894;16.714;2022-12-18T12:29:52;54.07;;;19.70;;
18174;SDS011;9212;50.894;16.714;2022-12-18T12:32:31;53.10;;;19.67;;
18174;SDS011;9212;50.894;16.714;2022-12-18T12:35:14;51.83;;;19.30;;
18174;SDS011;9212;50.894;16.714;2022-12-18T12:37:54;49.80;;;18.30;;
18174;SDS011;9212;50.894;16.714;2022-12-18T12:40:28;57.77;;;20.83;;
18174;SDS011;9212;50.894;16.714;2022-12-18T12:42:58;51.83;;;18.73;;
18174;SDS011;9212;50.894;16.714;2022-12-18T12:45:38;49.43;;;17.83;;
18174;SDS011;9212;50.894;16.714;2022-12-18T12:48:16;48.10;;;20.70;;
18174;SDS011;9212;50.894;16.714;2022-12-18T12:50:48;47.07;;;18.37;;
18174;SDS011;9212;50.894;16.714;2022-12-18T12:53:19;63.70;;;21.50;;
18174;SDS011;9212;50.894;16.714;2022-12-18T12:55:52;54.20;;;18.60;;
18174;SDS011;9212;50.894;16.714;2022-12-18T12:58:23;44.07;;;17.17;;
18174;SDS011;9212;50.894;16.714;2022-12-18T13:00:59;44.07;;;16.97;;
18174;SDS011;9212;50.894;16.714;2022-12-18T13:03:36;40.83;;;15.10;;
18174;SDS011;9212;50.894;16.714;2022-12-18T13:06:12;42.57;;;16.77;;
18174;SDS011;9212;50.894;16.714;2022-12-18T13:08:53;34.37;;;12.80;;
18174;SDS011;9212;50.894;16.714;2022-12-18T13:11:29;20.37;;;8.33;;
18174;SDS011;9212;50.894;16.714;2022-12-18T13:14:26;20.73;;;8.37;;
18174;SDS011;9212;50.894;16.714;2022-12-18T13:19:50;23.63;;;8.57;;
18174;SDS011;9212;50.894;16.714;2022-12-18T13:22:31;21.57;;;8.63;;
18174;SDS011;9212;50.894;16.714;2022-12-18T13:25:01;15.43;;;7.93;;
18174;SDS011;9212;50.894;16.714;2022-12-18T13:27:45;19.10;;;7.83;;
18174;SDS011;9212;50.894;16.714;2022-12-18T13:36:09;13.03;;;6.13;;
18174;SDS011;9212;50.894;16.714;2022-12-18T13:38:42;18.90;;;7.53;;
18174;SDS011;9212;50.894;16.714;2022-12-18T13:41:22;21.37;;;7.93;;
18174;SDS011;9212;50.894;16.714;2022-12-18T13:43:51;14.37;;;5.87;;
18174;SDS011;9212;50.894;16.714;2022-12-18T13:46:26;21.63;;;9.63;;
18174;SDS011;9212;50.894;16.714;2022-12-18T13:48:58;28.57;;;10.00;;
18174;SDS011;9212;50.894;16.714;2022-12-18T13:51:28;26.37;;;9.07;;
18174;SDS011;9212;50.894;16.714;2022-12-18T13:53:59;33.87;;;11.30;;
18174;SDS011;9212;50.894;16.714;2022-12-18T13:56:29;20.57;;;8.47;;
18174;SDS011;9212;50.894;16.714;2022-12-18T14:01:46;28.57;;;11.00;;
18174;SDS011;9212;50.894;16.714;2022-12-18T14:07:01;21.20;;;8.43;;
18174;SDS011;9212;50.894;16.714;2022-12-18T14:09:34;35.77;;;12.50;;
18174;SDS011;9212;50.894;16.714;2022-12-18T14:12:03;26.30;;;10.97;;
18174;SDS011;9212;50.894;16.714;2022-12-18T14:14:49;38.07;;;16.50;;
18174;SDS011;9212;50.894;16.714;2022-12-18T14:17:18;34.87;;;14.00;;
18174;SDS011;9212;50.894;16.714;2022-12-18T14:19:46;47.73;;;14.80;;
18174;SDS011;9212;50.894;16.714;2022-12-18T14:22:16;39.73;;;13.90;;
18174;SDS011;9212;50.894;16.714;2022-12-18T14:24:46;32.63;;;13.30;;
18174;SDS011;9212;50.894;16.714;2022-12-18T14:27:21;38.53;;;13.13;;
18174;SDS011;9212;50.894;16.714;2022-12-18T14:29:49;29.37;;;10.30;;
18174;SDS011;9212;50.894;16.714;2022-12-18T14:32:17;31.37;;;13.83;;
18174;SDS011;9212;50.894;16.714;2022-12-18T14:34:46;46.23;;;17.77;;
18174;SDS011;9212;50.894;16.714;2022-12-18T14:37:15;54.07;;;19.90;;
18174;SDS011;9212;50.894;16.714;2022-12-18T14:39:54;45.47;;;15.63;;
18174;SDS011;9212;50.894;16.714;2022-12-18T14:42:23;39.20;;;15.33;;
18174;SDS011;9212;50.894;16.714;2022-12-18T14:47:53;32.50;;;15.30;;
18174;SDS011;9212;50.894;16.714;2022-12-18T14:50:20;25.77;;;13.23;;
18174;SDS011;9212;50.894;16.714;2022-12-18T14:52:47;37.90;;;17.27;;
18174;SDS011;9212;50.894;16.714;2022-12-18T14:55:17;38.23;;;16.17;;
18174;SDS011;9212;50.894;16.714;2022-12-18T14:57:48;29.77;;;13.37;;
18174;SDS011;9212;50.894;16.714;2022-12-18T15:00:18;22.63;;;10.50;;
18174;SDS011;9212;50.894;16.714;2022-12-18T15:02:46;20.73;;;8.33;;